sensor_id;sensor_type;location;lat;lon;timestamp;temperature;humidity
18444;DHT22;9350;53.176;8.194;2022-12-07T00:02:27;4.50;99.90
18444;DHT22;9350;53.176;8.194;2022-12-07T00:04:53;4.40;99.90
18444;DHT22;9350;53.176;8.194;2022-12-07T00:07:20;4.40;99.90
18444;DHT22;9350;53.176;8.194;2022-12-07T00:09:47;4.40;99.90
18444;DHT22;9350;53.176;8.194;2022-12-07T00:12:14;4.40;99.90
18444;DHT22;9350;53.176;8.194;2022-12-07T00:14:40;4.50;99.90
18444;DHT22;9350;53.176;8.194;2022-12-07T00:17:07;4.40;99.90
18444;DHT22;9350;53.176;8.194;2022-12-07T00:19:35;4.50;99.90
18444;DHT22;9350;53.176;8.194;2022-12-07T00:22:02;4.40;99.90
18444;DHT22;9350;53.176;8.194;2022-12-07T00:24:29;4.50;99.90
18444;DHT22;9350;53.176;8.194;2022-12-07T00:26:56;4.40;99.90
18444;DHT22;9350;53.176;8.194;2022-12-07T00:29:24;4.40;99.90
18444;DHT22;9350;53.176;8.194;2022-12-07T00:31:51;4.40;99.90
18444;DHT22;9350;53.176;8.194;2022-12-07T00:34:19;4.40;99.90
18444;DHT22;9350;53.176;8.194;2022-12-07T00:36:47;4.30;99.90
18444;DHT22;9350;53.176;8.194;2022-12-07T00:39:15;4.30;99.90
18444;DHT22;9350;53.176;8.194;2022-12-07T00:41:41;4.30;99.90
18444;DHT22;9350;53.176;8.194;2022-12-07T00:44:08;4.30;99.90
18444;DHT22;9350;53.176;8.194;2022-12-07T00:46:35;4.30;99.90
18444;DHT22;9350;53.176;8.194;2022-12-07T00:49:02;4.20;99.90
18444;DHT22;9350;53.176;8.194;2022-12-07T00:51:29;4.20;99.90
18444;DHT22;9350;53.176;8.194;2022-12-07T00:53:57;4.10;99.90
18444;DHT22;9350;53.176;8.194;2022-12-07T00:56:25;4.10;99.90
18444;DHT22;9350;53.176;8.194;2022-12-07T00:58:54;4.10;99.90
18444;DHT22;9350;53.176;8.194;2022-12-07T01:01:21;4.10;99.90
18444;DHT22;9350;53.176;8.194;2022-12-07T01:03:48;4.00;99.90
18444;DHT22;9350;53.176;8.194;2022-12-07T01:06:16;4.10;99.90
18444;DHT22;9350;53.176;8.194;2022-12-07T01:08:43;4.10;99.90
18444;DHT22;9350;53.176;8.194;2022-12-07T01:11:13;4.10;99.90
18444;DHT22;9350;53.176;8.194;2022-12-07T01:13:40;4.00;99.90
18444;DHT22;9350;53.176;8.194;2022-12-07T01:16:08;4.00;99.90
18444;DHT22;9350;53.176;8.194;2022-12-07T01:18:36;3.80;99.90
18444;DHT22;9350;53.176;8.194;2022-12-07T01:21:05;3.90;99.90
18444;DHT22;9350;53.176;8.194;2022-12-07T01:23:32;4.10;99.90
18444;DHT22;9350;53.176;8.194;2022-12-07T01:26:01;4.00;99.90
18444;DHT22;9350;53.176;8.194;2022-12-07T01:28:30;4.10;99.90
18444;DHT22;9350;53.176;8.194;2022-12-07T01:30:58;4.00;99.90
18444;DHT22;9350;53.176;8.194;2022-12-07T01:33:26;3.90;99.90
18444;DHT22;9350;53.176;8.194;2022-12-07T01:35:54;3.90;99.90
18444;DHT22;9350;53.176;8.194;2022-12-07T01:38:20;3.90;99.90
18444;DHT22;9350;53.176;8.194;2022-12-07T01:40:54;3.90;99.90
18444;DHT22;9350;53.176;8.194;2022-12-07T01:43:23;4.00;99.90
18444;DHT22;9350;53.176;8.194;2022-12-07T01:45:53;3.90;99.90
18444;DHT22;9350;53.176;8.194;2022-12-07T01:48:22;3.90;99.90
18444;DHT22;9350;53.176;8.194;2022-12-07T01:50:52;3.90;99.90
18444;DHT22;9350;53.176;8.194;2022-12-07T01:53:21;4.00;99.90
18444;DHT22;9350;53.176;8.194;2022-12-07T01:55:52;4.00;99.90
18444;DHT22;9350;53.176;8.194;2022-12-07T01:58:20;4.10;99.90
18444;DHT22;9350;53.176;8.194;2022-12-07T02:00:47;4.00;99.90
18444;DHT22;9350;53.176;8.194;2022-12-07T02:03:19;4.10;99.90
18444;DHT22;9350;53.176;8.194;2022-12-07T02:05:48;4.00;99.90
18444;DHT22;9350;53.176;8.194;2022-12-07T02:08:16;4.10;99.90
18444;DHT22;9350;53.176;8.194;2022-12-07T02:10:44;4.10;99.90
18444;DHT22;9350;53.176;8.194;2022-12-07T02:13:13;4.10;99.90
18444;DHT22;9350;53.176;8.194;2022-12-07T02:15:59;4.20;99.90
18444;DHT22;9350;53.176;8.194;2022-12-07T02:18:42;4.20;99.90
18444;DHT22;9350;53.176;8.194;2022-12-07T02:21:13;4.20;99.90
18444;DHT22;9350;53.176;8.194;2022-12-07T02:24:11;4.20;99.90
18444;DHT22;9350;53.176;8.194;2022-12-07T02:27:10;4.20;99.90
18444;DHT22;9350;53.176;8.194;2022-12-07T02:29:45;4.20;99.90
18444;DHT22;9350;53.176;8.194;2022-12-07T02:32:16;4.20;99.90
18444;DHT22;9350;53.176;8.194;2022-12-07T02:34:49;4.10;99.90
18444;DHT22;9350;53.176;8.194;2022-12-07T02:37:29;4.00;99.90
18444;DHT22;9350;53.176;8.194;2022-12-07T02:40:04;4.10;99.90
18444;DHT22;9350;53.176;8.194;2022-12-07T02:42:36;4.00;99.90
18444;DHT22;9350;53.176;8.194;2022-12-07T02:45:07;4.10;99.90
18444;DHT22;9350;53.176;8.194;2022-12-07T02:47:36;4.00;99.90
18444;DHT22;9350;53.176;8.194;2022-12-07T02:50:04;4.00;99.90
18444;DHT22;9350;53.176;8.194;2022-12-07T02:52:31;3.90;99.90
18444;DHT22;9350;53.176;8.194;2022-12-07T02:54:58;3.90;99.90
18444;DHT22;9350;53.176;8.194;2022-12-07T02:57:47;3.90;99.90
18444;DHT22;9350;53.176;8.194;2022-12-07T03:00:20;3.80;99.90
18444;DHT22;9350;53.176;8.194;2022-12-07T03:02:52;3.80;99.90
18444;DHT22;9350;53.176;8.194;2022-12-07T03:05:41;3.80;99.90
18444;DHT22;9350;53.176;8.194;2022-12-07T03:08:15;3.90;99.90
18444;DHT22;9350;53.176;8.194;2022-12-07T03:10:50;3.80;99.90
18444;DHT22;9350;53.176;8.194;2022-12-07T03:13:25;3.80;99.90
18444;DHT22;9350;53.176;8.194;2022-12-07T03:15:58;3.80;99.90
18444;DHT22;9350;53.176;8.194;2022-12-07T03:18:31;3.90;99.90
18444;DHT22;9350;53.176;8.194;2022-12-07T03:21:04;3.90;99.90
18444;DHT22;9350;53.176;8.194;2022-12-07T03:23:33;3.80;99.90
18444;DHT22;9350;53.176;8.194;2022-12-07T03:26:02;3.90;99.90
18444;DHT22;9350;53.176;8.194;2022-12-07T03:28:33;3.90;99.90
18444;DHT22;9350;53.176;8.194;2022-12-07T03:31:06;3.90;99.90
18444;DHT22;9350;53.176;8.194;2022-12-07T03:33:39;3.80;99.90
18444;DHT22;9350;53.176;8.194;2022-12-07T03:36:12;3.90;99.90
18444;DHT22;9350;53.176;8.194;2022-12-07T03:38:46;3.80;99.90
18444;DHT22;9350;53.176;8.194;2022-12-07T03:41:18;3.80;99.90
18444;DHT22;9350;53.176;8.194;2022-12-07T03:43:46;3.80;99.90
18444;DHT22;9350;53.176;8.194;2022-12-07T03:46:20;3.90;99.90
18444;DHT22;9350;53.176;8.194;2022-12-07T03:48:55;3.80;99.90
18444;DHT22;9350;53.176;8.194;2022-12-07T03:51:30;3.80;99.90
18444;DHT22;9350;53.176;8.194;2022-12-07T03:54:02;3.80;99.90
18444;DHT22;9350;53.176;8.194;2022-12-07T03:56:33;3.80;99.90
18444;DHT22;9350;53.176;8.194;2022-12-07T03:59:00;3.80;99.90
18444;DHT22;9350;53.176;8.194;2022-12-07T04:01:28;3.80;99.90
18444;DHT22;9350;53.176;8.194;2022-12-07T04:03:55;3.80;99.90
18444;DHT22;9350;53.176;8.194;2022-12-07T04:06:22;3.80;99.90
18444;DHT22;9350;53.176;8.194;2022-12-07T04:08:49;3.70;99.90
18444;DHT22;9350;53.176;8.194;2022-12-07T04:11:16;3.70;99.90
18444;DHT22;9350;53.176;8.194;2022-12-07T04:13:42;3.70;99.90
18444;DHT22;9350;53.176;8.194;2022-12-07T04:16:28;3.80;99.90
18444;DHT22;9350;53.176;8.194;2022-12-07T04:18:55;3.70;99.90
18444;DHT22;9350;53.176;8.194;2022-12-07T04:21:22;3.70;99.90
18444;DHT22;9350;53.176;8.194;2022-12-07T04:23:49;3.60;99.90
18444;DHT22;9350;53.176;8.194;2022-12-07T04:26:15;3.60;99.90
18444;DHT22;9350;53.176;8.194;2022-12-07T04:28:42;3.50;99.90
18444;DHT22;9350;53.176;8.194;2022-12-07T04:31:09;3.60;99.90
18444;DHT22;9350;53.176;8.194;2022-12-07T04:33:37;3.60;99.90
18444;DHT22;9350;53.176;8.194;2022-12-07T04:36:04;3.60;99.90
18444;DHT22;9350;53.176;8.194;2022-12-07T04:38:31;3.70;99.90
18444;DHT22;9350;53.176;8.194;2022-12-07T04:40:58;3.70;99.90
18444;DHT22;9350;53.176;8.194;2022-12-07T04:43:24;3.60;99.90
18444;DHT22;9350;53.176;8.194;2022-12-07T04:45:51;3.60;99.90
18444;DHT22;9350;53.176;8.194;2022-12-07T04:48:18;3.60;99.90
18444;DHT22;9350;53.176;8.194;2022-12-07T04:50:49;3.60;99.90
18444;DHT22;9350;53.176;8.194;2022-12-07T04:53:17;3.60;99.90
18444;DHT22;9350;53.176;8.194;2022-12-07T04:55:44;3.60;99.90
18444;DHT22;9350;53.176;8.194;2022-12-07T04:58:10;3.70;99.90
18444;DHT22;9350;53.176;8.194;2022-12-07T05:00:37;3.70;99.90
18444;DHT22;9350;53.176;8.194;2022-12-07T05:03:05;3.70;99.90
18444;DHT22;9350;53.176;8.194;2022-12-07T05:05:32;3.70;99.90
18444;DHT22;9350;53.176;8.194;2022-12-07T05:08:00;3.80;99.90
18444;DHT22;9350;53.176;8.194;2022-12-07T05:10:28;3.80;99.90
18444;DHT22;9350;53.176;8.194;2022-12-07T05:12:55;3.80;99.90
18444;DHT22;9350;53.176;8.194;2022-12-07T05:15:21;3.70;99.90
18444;DHT22;9350;53.176;8.194;2022-12-07T05:17:48;3.70;99.90
18444;DHT22;9350;53.176;8.194;2022-12-07T05:20:15;3.70;99.90
18444;DHT22;9350;53.176;8.194;2022-12-07T05:22:42;3.70;99.90
18444;DHT22;9350;53.176;8.194;2022-12-07T05:25:10;3.70;99.90
18444;DHT22;9350;53.176;8.194;2022-12-07T05:27:36;3.60;99.90
18444;DHT22;9350;53.176;8.194;2022-12-07T05:30:05;3.70;99.90
18444;DHT22;9350;53.176;8.194;2022-12-07T05:32:32;3.60;99.90
18444;DHT22;9350;53.176;8.194;2022-12-07T05:34:59;3.60;99.90
18444;DHT22;9350;53.176;8.194;2022-12-07T05:37:25;3.60;99.90
18444;DHT22;9350;53.176;8.194;2022-12-07T05:39:52;3.60;99.90
18444;DHT22;9350;53.176;8.194;2022-12-07T05:42:20;3.60;99.90
18444;DHT22;9350;53.176;8.194;2022-12-07T05:44:47;3.50;99.90
18444;DHT22;9350;53.176;8.194;2022-12-07T05:47:14;3.50;99.90
18444;DHT22;9350;53.176;8.194;2022-12-07T05:49:41;3.50;99.90
18444;DHT22;9350;53.176;8.194;2022-12-07T05:52:08;3.50;99.90
18444;DHT22;9350;53.176;8.194;2022-12-07T05:54:35;3.50;99.90
18444;DHT22;9350;53.176;8.194;2022-12-07T05:57:01;3.50;99.90
18444;DHT22;9350;53.176;8.194;2022-12-07T05:59:29;3.50;99.90
18444;DHT22;9350;53.176;8.194;2022-12-07T06:01:57;3.60;99.90
18444;DHT22;9350;53.176;8.194;2022-12-07T06:04:26;3.70;99.90
18444;DHT22;9350;53.176;8.194;2022-12-07T06:06:53;3.60;99.90
18444;DHT22;9350;53.176;8.194;2022-12-07T06:09:21;3.60;99.90
18444;DHT22;9350;53.176;8.194;2022-12-07T06:11:49;3.70;99.90
18444;DHT22;9350;53.176;8.194;2022-12-07T06:14:35;3.70;99.90
18444;DHT22;9350;53.176;8.194;2022-12-07T06:17:02;3.80;99.90
18444;DHT22;9350;53.176;8.194;2022-12-07T06:19:29;3.70;99.90
18444;DHT22;9350;53.176;8.194;2022-12-07T06:21:56;3.80;99.90
18444;DHT22;9350;53.176;8.194;2022-12-07T06:24:24;3.80;99.90
18444;DHT22;9350;53.176;8.194;2022-12-07T06:26:51;3.80;99.90
18444;DHT22;9350;53.176;8.194;2022-12-07T06:29:18;3.80;99.90
18444;DHT22;9350;53.176;8.194;2022-12-07T06:31:46;3.80;99.90
18444;DHT22;9350;53.176;8.194;2022-12-07T06:34:14;3.90;99.90
18444;DHT22;9350;53.176;8.194;2022-12-07T06:36:42;3.90;99.90
18444;DHT22;9350;53.176;8.194;2022-12-07T06:39:10;4.00;99.90
18444;DHT22;9350;53.176;8.194;2022-12-07T06:41:37;3.90;99.90
18444;DHT22;9350;53.176;8.194;2022-12-07T06:44:04;3.90;99.90
18444;DHT22;9350;53.176;8.194;2022-12-07T06:46:31;4.00;99.90
18444;DHT22;9350;53.176;8.194;2022-12-07T06:48:59;4.00;99.90
18444;DHT22;9350;53.176;8.194;2022-12-07T06:51:26;4.00;99.90
18444;DHT22;9350;53.176;8.194;2022-12-07T06:53:52;3.90;99.90
18444;DHT22;9350;53.176;8.194;2022-12-07T06:56:19;3.90;99.90
18444;DHT22;9350;53.176;8.194;2022-12-07T06:58:46;4.00;99.90
18444;DHT22;9350;53.176;8.194;2022-12-07T07:01:15;4.00;99.90
18444;DHT22;9350;53.176;8.194;2022-12-07T07:03:42;3.90;99.90
18444;DHT22;9350;53.176;8.194;2022-12-07T07:06:11;3.90;99.90
18444;DHT22;9350;53.176;8.194;2022-12-07T07:08:38;3.90;99.90
18444;DHT22;9350;53.176;8.194;2022-12-07T07:11:06;3.90;99.90
18444;DHT22;9350;53.176;8.194;2022-12-07T07:13:33;3.90;99.90
18444;DHT22;9350;53.176;8.194;2022-12-07T07:16:00;3.90;99.90
18444;DHT22;9350;53.176;8.194;2022-12-07T07:18:27;3.80;99.90
18444;DHT22;9350;53.176;8.194;2022-12-07T07:20:54;3.80;99.90
18444;DHT22;9350;53.176;8.194;2022-12-07T07:23:23;3.80;99.90
18444;DHT22;9350;53.176;8.194;2022-12-07T07:25:50;3.70;99.90
18444;DHT22;9350;53.176;8.194;2022-12-07T07:28:17;3.60;99.90
18444;DHT22;9350;53.176;8.194;2022-12-07T07:30:44;3.50;99.90
18444;DHT22;9350;53.176;8.194;2022-12-07T07:33:11;3.40;99.90
18444;DHT22;9350;53.176;8.194;2022-12-07T07:35:38;3.50;99.90
18444;DHT22;9350;53.176;8.194;2022-12-07T07:38:07;3.40;99.90
18444;DHT22;9350;53.176;8.194;2022-12-07T07:40:35;3.30;99.90
18444;DHT22;9350;53.176;8.194;2022-12-07T07:43:03;3.30;99.90
18444;DHT22;9350;53.176;8.194;2022-12-07T07:45:29;3.20;99.90
18444;DHT22;9350;53.176;8.194;2022-12-07T07:47:56;3.20;99.90
18444;DHT22;9350;53.176;8.194;2022-12-07T07:50:23;3.20;99.90
18444;DHT22;9350;53.176;8.194;2022-12-07T07:52:51;3.10;99.90
18444;DHT22;9350;53.176;8.194;2022-12-07T07:55:18;3.10;99.90
18444;DHT22;9350;53.176;8.194;2022-12-07T07:57:46;3.20;99.90
18444;DHT22;9350;53.176;8.194;2022-12-07T08:00:15;3.20;99.90
18444;DHT22;9350;53.176;8.194;2022-12-07T08:02:43;3.20;99.90
18444;DHT22;9350;53.176;8.194;2022-12-07T08:05:10;3.30;99.90
18444;DHT22;9350;53.176;8.194;2022-12-07T08:07:37;3.30;99.90
18444;DHT22;9350;53.176;8.194;2022-12-07T08:10:05;3.30;99.90
18444;DHT22;9350;53.176;8.194;2022-12-07T08:12:35;3.40;99.90
18444;DHT22;9350;53.176;8.194;2022-12-07T08:15:04;3.40;99.90
18444;DHT22;9350;53.176;8.194;2022-12-07T08:17:31;3.40;99.90
18444;DHT22;9350;53.176;8.194;2022-12-07T08:19:59;3.40;99.90
18444;DHT22;9350;53.176;8.194;2022-12-07T08:22:25;3.50;99.90
18444;DHT22;9350;53.176;8.194;2022-12-07T08:24:53;3.40;99.90
18444;DHT22;9350;53.176;8.194;2022-12-07T08:27:20;3.50;99.90
18444;DHT22;9350;53.176;8.194;2022-12-07T08:29:52;3.50;99.90
18444;DHT22;9350;53.176;8.194;2022-12-07T08:32:20;3.50;99.90
18444;DHT22;9350;53.176;8.194;2022-12-07T08:34:47;3.60;99.90
18444;DHT22;9350;53.176;8.194;2022-12-07T08:37:14;3.70;99.90
18444;DHT22;9350;53.176;8.194;2022-12-07T08:39:41;3.60;99.90
18444;DHT22;9350;53.176;8.194;2022-12-07T08:42:07;3.70;99.90
18444;DHT22;9350;53.176;8.194;2022-12-07T08:44:34;3.70;99.90
18444;DHT22;9350;53.176;8.194;2022-12-07T08:47:04;3.70;99.90
18444;DHT22;9350;53.176;8.194;2022-12-07T08:49:36;3.80;99.90
18444;DHT22;9350;53.176;8.194;2022-12-07T08:52:04;3.80;99.90
18444;DHT22;9350;53.176;8.194;2022-12-07T08:54:33;3.90;99.90
18444;DHT22;9350;53.176;8.194;2022-12-07T08:57:02;3.90;99.90
18444;DHT22;9350;53.176;8.194;2022-12-07T08:59:29;3.90;99.90
18444;DHT22;9350;53.176;8.194;2022-12-07T09:01:56;3.90;99.90
18444;DHT22;9350;53.176;8.194;2022-12-07T09:04:23;3.90;99.90
18444;DHT22;9350;53.176;8.194;2022-12-07T09:06:51;4.00;99.90
18444;DHT22;9350;53.176;8.194;2022-12-07T09:09:17;4.00;99.90
18444;DHT22;9350;53.176;8.194;2022-12-07T09:11:44;3.90;99.90
18444;DHT22;9350;53.176;8.194;2022-12-07T09:14:11;4.00;99.90
18444;DHT22;9350;53.176;8.194;2022-12-07T09:16:39;4.00;99.90
18444;DHT22;9350;53.176;8.194;2022-12-07T09:19:06;4.00;99.90
18444;DHT22;9350;53.176;8.194;2022-12-07T09:21:33;4.00;99.90
18444;DHT22;9350;53.176;8.194;2022-12-07T09:24:02;4.20;99.90
18444;DHT22;9350;53.176;8.194;2022-12-07T09:26:28;4.10;99.90
18444;DHT22;9350;53.176;8.194;2022-12-07T09:28:55;4.20;99.90
18444;DHT22;9350;53.176;8.194;2022-12-07T09:31:22;4.20;99.90
18444;DHT22;9350;53.176;8.194;2022-12-07T09:33:53;4.20;99.90
18444;DHT22;9350;53.176;8.194;2022-12-07T09:36:20;4.20;99.90
18444;DHT22;9350;53.176;8.194;2022-12-07T09:38:47;4.30;99.90
18444;DHT22;9350;53.176;8.194;2022-12-07T09:41:15;4.30;99.90
18444;DHT22;9350;53.176;8.194;2022-12-07T09:43:42;4.20;99.90
18444;DHT22;9350;53.176;8.194;2022-12-07T09:46:10;4.30;99.90
18444;DHT22;9350;53.176;8.194;2022-12-07T09:48:41;4.30;99.90
18444;DHT22;9350;53.176;8.194;2022-12-07T09:51:14;4.30;99.90
18444;DHT22;9350;53.176;8.194;2022-12-07T09:53:41;4.40;99.90
18444;DHT22;9350;53.176;8.194;2022-12-07T09:56:11;4.30;99.90
18444;DHT22;9350;53.176;8.194;2022-12-07T09:58:42;4.40;99.90
18444;DHT22;9350;53.176;8.194;2022-12-07T10:01:13;4.40;99.90
18444;DHT22;9350;53.176;8.194;2022-12-07T10:03:47;4.50;99.90
18444;DHT22;9350;53.176;8.194;2022-12-07T10:06:15;4.40;99.90
18444;DHT22;9350;53.176;8.194;2022-12-07T10:08:42;4.40;99.90
18444;DHT22;9350;53.176;8.194;2022-12-07T10:11:09;4.50;99.90
18444;DHT22;9350;53.176;8.194;2022-12-07T10:13:38;4.40;99.90
18444;DHT22;9350;53.176;8.194;2022-12-07T10:16:35;4.50;99.90
18444;DHT22;9350;53.176;8.194;2022-12-07T10:19:19;4.50;99.90
18444;DHT22;9350;53.176;8.194;2022-12-07T10:22:00;4.60;99.90
18444;DHT22;9350;53.176;8.194;2022-12-07T10:24:27;4.60;99.90
18444;DHT22;9350;53.176;8.194;2022-12-07T10:26:54;4.60;99.90
18444;DHT22;9350;53.176;8.194;2022-12-07T10:29:26;4.60;99.90
18444;DHT22;9350;53.176;8.194;2022-12-07T10:31:58;4.60;99.90
18444;DHT22;9350;53.176;8.194;2022-12-07T10:34:27;4.70;99.90
18444;DHT22;9350;53.176;8.194;2022-12-07T10:37:13;4.70;99.90
18444;DHT22;9350;53.176;8.194;2022-12-07T10:39:41;4.60;99.90
18444;DHT22;9350;53.176;8.194;2022-12-07T10:42:16;4.70;99.90
18444;DHT22;9350;53.176;8.194;2022-12-07T10:44:43;4.80;99.90
18444;DHT22;9350;53.176;8.194;2022-12-07T10:47:20;4.80;99.90
18444;DHT22;9350;53.176;8.194;2022-12-07T10:50:12;4.80;99.90
18444;DHT22;9350;53.176;8.194;2022-12-07T10:52:49;4.80;99.90
18444;DHT22;9350;53.176;8.194;2022-12-07T10:55:23;4.90;99.90
18444;DHT22;9350;53.176;8.194;2022-12-07T10:58:28;4.80;99.90
18444;DHT22;9350;53.176;8.194;2022-12-07T11:01:03;4.90;99.90
18444;DHT22;9350;53.176;8.194;2022-12-07T11:03:46;4.80;99.90
18444;DHT22;9350;53.176;8.194;2022-12-07T11:06:26;4.90;99.90
18444;DHT22;9350;53.176;8.194;2022-12-07T11:09:03;5.00;99.90
18444;DHT22;9350;53.176;8.194;2022-12-07T11:11:35;4.90;99.90
18444;DHT22;9350;53.176;8.194;2022-12-07T11:14:12;4.90;99.90
18444;DHT22;9350;53.176;8.194;2022-12-07T11:16:55;4.90;99.90
18444;DHT22;9350;53.176;8.194;2022-12-07T11:22:31;4.90;99.90
18444;DHT22;9350;53.176;8.194;2022-12-07T11:25:16;4.90;99.90
18444;DHT22;9350;53.176;8.194;2022-12-07T11:27:48;4.90;99.90
18444;DHT22;9350;53.176;8.194;2022-12-07T11:30:20;4.90;99.90
18444;DHT22;9350;53.176;8.194;2022-12-07T11:32:59;4.90;99.90
18444;DHT22;9350;53.176;8.194;2022-12-07T11:35:36;4.90;99.90
18444;DHT22;9350;53.176;8.194;2022-12-07T11:38:12;5.00;99.90
18444;DHT22;9350;53.176;8.194;2022-12-07T11:40:43;5.00;99.90
18444;DHT22;9350;53.176;8.194;2022-12-07T11:43:18;5.00;99.90
18444;DHT22;9350;53.176;8.194;2022-12-07T11:45:52;5.10;99.90
18444;DHT22;9350;53.176;8.194;2022-12-07T11:48:30;5.10;99.90
18444;DHT22;9350;53.176;8.194;2022-12-07T11:50:59;5.20;99.90
18444;DHT22;9350;53.176;8.194;2022-12-07T11:53:33;5.20;99.90
18444;DHT22;9350;53.176;8.194;2022-12-07T11:56:06;5.20;99.90
18444;DHT22;9350;53.176;8.194;2022-12-07T11:58:45;5.20;99.90
18444;DHT22;9350;53.176;8.194;2022-12-07T12:01:29;5.20;99.90
18444;DHT22;9350;53.176;8.194;2022-12-07T12:04:06;5.20;99.90
18444;DHT22;9350;53.176;8.194;2022-12-07T12:06:41;5.20;99.90
18444;DHT22;9350;53.176;8.194;2022-12-07T12:09:13;5.30;99.90
18444;DHT22;9350;53.176;8.194;2022-12-07T12:11:52;5.30;99.90
18444;DHT22;9350;53.176;8.194;2022-12-07T12:14:41;5.30;99.90
18444;DHT22;9350;53.176;8.194;2022-12-07T12:17:27;5.30;99.90
18444;DHT22;9350;53.176;8.194;2022-12-07T12:20:04;5.20;99.90
18444;DHT22;9350;53.176;8.194;2022-12-07T12:22:35;5.30;99.90
18444;DHT22;9350;53.176;8.194;2022-12-07T12:25:07;5.30;99.90
18444;DHT22;9350;53.176;8.194;2022-12-07T12:27:39;5.30;99.90
18444;DHT22;9350;53.176;8.194;2022-12-07T12:30:23;5.30;99.90
18444;DHT22;9350;53.176;8.194;2022-12-07T12:32:51;5.30;99.90
18444;DHT22;9350;53.176;8.194;2022-12-07T12:35:22;5.30;99.90
18444;DHT22;9350;53.176;8.194;2022-12-07T12:37:53;5.20;99.90
18444;DHT22;9350;53.176;8.194;2022-12-07T12:40:42;5.30;99.90
18444;DHT22;9350;53.176;8.194;2022-12-07T12:43:46;5.30;99.90
18444;DHT22;9350;53.176;8.194;2022-12-07T12:46:52;5.30;99.90
18444;DHT22;9350;53.176;8.194;2022-12-07T12:49:44;5.30;99.90
18444;DHT22;9350;53.176;8.194;2022-12-07T12:52:54;5.30;99.90
18444;DHT22;9350;53.176;8.194;2022-12-07T12:55:42;5.40;99.90
18444;DHT22;9350;53.176;8.194;2022-12-07T12:58:46;5.40;99.90
18444;DHT22;9350;53.176;8.194;2022-12-07T13:01:42;5.40;99.90
18444;DHT22;9350;53.176;8.194;2022-12-07T13:04:28;5.40;99.90
18444;DHT22;9350;53.176;8.194;2022-12-07T13:06:57;5.40;99.90
18444;DHT22;9350;53.176;8.194;2022-12-07T13:09:27;5.20;99.90
18444;DHT22;9350;53.176;8.194;2022-12-07T13:11:58;5.20;99.90
18444;DHT22;9350;53.176;8.194;2022-12-07T13:14:43;5.20;99.90
18444;DHT22;9350;53.176;8.194;2022-12-07T13:17:10;5.10;99.90
18444;DHT22;9350;53.176;8.194;2022-12-07T13:19:58;5.10;99.90
18444;DHT22;9350;53.176;8.194;2022-12-07T13:22:51;5.10;99.90
18444;DHT22;9350;53.176;8.194;2022-12-07T13:25:31;5.10;99.90
18444;DHT22;9350;53.176;8.194;2022-12-07T13:28:02;5.10;99.90
18444;DHT22;9350;53.176;8.194;2022-12-07T13:30:43;5.20;99.90
18444;DHT22;9350;53.176;8.194;2022-12-07T13:33:12;5.10;99.90
18444;DHT22;9350;53.176;8.194;2022-12-07T13:35:39;5.10;99.90
18444;DHT22;9350;53.176;8.194;2022-12-07T13:38:29;5.10;99.90
18444;DHT22;9350;53.176;8.194;2022-12-07T13:41:13;5.10;99.90
18444;DHT22;9350;53.176;8.194;2022-12-07T13:43:44;5.20;99.90
18444;DHT22;9350;53.176;8.194;2022-12-07T13:46:11;5.20;99.90
18444;DHT22;9350;53.176;8.194;2022-12-07T13:48:46;5.20;99.90
18444;DHT22;9350;53.176;8.194;2022-12-07T13:51:22;5.20;99.90
18444;DHT22;9350;53.176;8.194;2022-12-07T13:53:50;5.30;99.90
18444;DHT22;9350;53.176;8.194;2022-12-07T13:56:18;5.20;99.90
18444;DHT22;9350;53.176;8.194;2022-12-07T13:58:47;5.20;99.90
18444;DHT22;9350;53.176;8.194;2022-12-07T14:01:15;4.90;99.90
18444;DHT22;9350;53.176;8.194;2022-12-07T14:03:42;4.90;99.90
18444;DHT22;9350;53.176;8.194;2022-12-07T14:06:23;4.70;99.90
18444;DHT22;9350;53.176;8.194;2022-12-07T14:09:07;4.70;99.90
18444;DHT22;9350;53.176;8.194;2022-12-07T14:11:35;4.50;99.90
18444;DHT22;9350;53.176;8.194;2022-12-07T14:14:02;4.30;99.90
18444;DHT22;9350;53.176;8.194;2022-12-07T14:16:31;4.30;99.90
18444;DHT22;9350;53.176;8.194;2022-12-07T14:19:00;4.20;99.90
18444;DHT22;9350;53.176;8.194;2022-12-07T14:21:28;4.20;99.90
18444;DHT22;9350;53.176;8.194;2022-12-07T14:24:15;4.10;99.90
18444;DHT22;9350;53.176;8.194;2022-12-07T14:26:44;4.00;99.90
18444;DHT22;9350;53.176;8.194;2022-12-07T14:29:32;4.10;99.90
18444;DHT22;9350;53.176;8.194;2022-12-07T14:32:19;4.10;99.90
18444;DHT22;9350;53.176;8.194;2022-12-07T14:34:55;4.10;99.90
18444;DHT22;9350;53.176;8.194;2022-12-07T14:37:23;4.10;99.90
18444;DHT22;9350;53.176;8.194;2022-12-07T14:39:50;4.00;99.90
18444;DHT22;9350;53.176;8.194;2022-12-07T14:42:18;4.00;99.90
18444;DHT22;9350;53.176;8.194;2022-12-07T14:44:45;4.00;99.90
18444;DHT22;9350;53.176;8.194;2022-12-07T14:47:12;4.00;99.90
18444;DHT22;9350;53.176;8.194;2022-12-07T14:49:39;4.00;99.90
18444;DHT22;9350;53.176;8.194;2022-12-07T14:52:08;4.00;99.90
18444;DHT22;9350;53.176;8.194;2022-12-07T14:54:36;4.00;99.90
18444;DHT22;9350;53.176;8.194;2022-12-07T14:57:02;4.00;99.90
18444;DHT22;9350;53.176;8.194;2022-12-07T14:59:30;4.00;99.90
18444;DHT22;9350;53.176;8.194;2022-12-07T15:01:57;3.90;99.90
18444;DHT22;9350;53.176;8.194;2022-12-07T15:04:24;4.00;99.90
18444;DHT22;9350;53.176;8.194;2022-12-07T15:06:57;3.90;99.90
18444;DHT22;9350;53.176;8.194;2022-12-07T15:09:25;3.90;99.90
18444;DHT22;9350;53.176;8.194;2022-12-07T15:11:51;3.90;99.90
18444;DHT22;9350;53.176;8.194;2022-12-07T15:14:18;3.90;99.90
18444;DHT22;9350;53.176;8.194;2022-12-07T15:16:46;3.80;99.90
18444;DHT22;9350;53.176;8.194;2022-12-07T15:19:14;3.80;99.90
18444;DHT22;9350;53.176;8.194;2022-12-07T15:21:42;3.80;99.90
18444;DHT22;9350;53.176;8.194;2022-12-07T15:24:09;3.80;99.90
18444;DHT22;9350;53.176;8.194;2022-12-07T15:26:37;3.80;99.90
18444;DHT22;9350;53.176;8.194;2022-12-07T15:29:04;3.80;99.90
18444;DHT22;9350;53.176;8.194;2022-12-07T15:31:32;3.80;99.90
18444;DHT22;9350;53.176;8.194;2022-12-07T15:34:00;3.80;99.90
18444;DHT22;9350;53.176;8.194;2022-12-07T15:36:28;3.80;99.90
18444;DHT22;9350;53.176;8.194;2022-12-07T15:38:56;3.80;99.90
18444;DHT22;9350;53.176;8.194;2022-12-07T15:41:23;3.80;99.90
18444;DHT22;9350;53.176;8.194;2022-12-07T15:43:50;3.90;99.90
18444;DHT22;9350;53.176;8.194;2022-12-07T15:46:36;3.80;99.90
18444;DHT22;9350;53.176;8.194;2022-12-07T15:49:08;3.80;99.90
18444;DHT22;9350;53.176;8.194;2022-12-07T15:51:35;3.90;99.90
18444;DHT22;9350;53.176;8.194;2022-12-07T15:54:02;4.00;99.90
18444;DHT22;9350;53.176;8.194;2022-12-07T15:56:29;4.00;99.90
18444;DHT22;9350;53.176;8.194;2022-12-07T15:58:56;4.00;99.90
18444;DHT22;9350;53.176;8.194;2022-12-07T16:01:22;4.10;99.90
18444;DHT22;9350;53.176;8.194;2022-12-07T16:03:49;4.10;99.90
18444;DHT22;9350;53.176;8.194;2022-12-07T16:06:18;4.10;99.90
18444;DHT22;9350;53.176;8.194;2022-12-07T16:08:46;4.10;99.90
18444;DHT22;9350;53.176;8.194;2022-12-07T16:11:13;4.10;99.90
18444;DHT22;9350;53.176;8.194;2022-12-07T16:13:40;4.10;99.90
18444;DHT22;9350;53.176;8.194;2022-12-07T16:16:10;4.10;99.90
18444;DHT22;9350;53.176;8.194;2022-12-07T16:18:38;4.10;99.90
18444;DHT22;9350;53.176;8.194;2022-12-07T16:21:05;4.10;99.90
18444;DHT22;9350;53.176;8.194;2022-12-07T16:23:34;4.10;99.90
18444;DHT22;9350;53.176;8.194;2022-12-07T16:26:05;4.10;99.90
18444;DHT22;9350;53.176;8.194;2022-12-07T16:28:32;4.20;99.90
18444;DHT22;9350;53.176;8.194;2022-12-07T16:31:06;4.20;99.90